sensor_id;sensor_type;location;lat;lon;timestamp;temperature;humidity
25556;DHT22;13447;57.174;-2.112;2022-08-19T00:01:48;14.20;99.90
25556;DHT22;13447;57.174;-2.112;2022-08-19T00:04:22;14.20;99.90
25556;DHT22;13447;57.174;-2.112;2022-08-19T00:11:46;14.30;99.90
25556;DHT22;13447;57.174;-2.112;2022-08-19T00:14:15;14.30;99.90
25556;DHT22;13447;57.174;-2.112;2022-08-19T00:16:44;14.20;99.90
25556;DHT22;13447;57.174;-2.112;2022-08-19T00:19:12;14.10;99.90
25556;DHT22;13447;57.174;-2.112;2022-08-19T00:21:39;14.00;99.90
25556;DHT22;13447;57.174;-2.112;2022-08-19T00:24:11;14.00;99.90
25556;DHT22;13447;57.174;-2.112;2022-08-19T00:26:39;13.80;99.90
25556;DHT22;13447;57.174;-2.112;2022-08-19T00:29:07;13.70;99.90
25556;DHT22;13447;57.174;-2.112;2022-08-19T00:31:35;13.70;99.90
25556;DHT22;13447;57.174;-2.112;2022-08-19T00:34:02;13.60;99.90
25556;DHT22;13447;57.174;-2.112;2022-08-19T00:36:29;13.50;99.90
25556;DHT22;13447;57.174;-2.112;2022-08-19T00:38:59;13.50;99.90
25556;DHT22;13447;57.174;-2.112;2022-08-19T00:41:26;13.40;99.90
25556;DHT22;13447;57.174;-2.112;2022-08-19T00:44:27;13.40;99.90
25556;DHT22;13447;57.174;-2.112;2022-08-19T00:46:57;13.40;99.90
25556;DHT22;13447;57.174;-2.112;2022-08-19T00:49:36;13.40;99.90
25556;DHT22;13447;57.174;-2.112;2022-08-19T00:52:08;13.40;99.90
25556;DHT22;13447;57.174;-2.112;2022-08-19T00:54:37;13.40;99.90
25556;DHT22;13447;57.174;-2.112;2022-08-19T00:57:08;13.30;99.90
25556;DHT22;13447;57.174;-2.112;2022-08-19T00:59:38;13.30;99.90
25556;DHT22;13447;57.174;-2.112;2022-08-19T01:02:27;13.30;99.90
25556;DHT22;13447;57.174;-2.112;2022-08-19T01:04:55;13.30;99.90
25556;DHT22;13447;57.174;-2.112;2022-08-19T01:07:22;13.20;99.90
25556;DHT22;13447;57.174;-2.112;2022-08-19T01:09:50;13.10;99.90
25556;DHT22;13447;57.174;-2.112;2022-08-19T01:12:17;13.00;99.90
25556;DHT22;13447;57.174;-2.112;2022-08-19T01:14:46;12.90;99.90
25556;DHT22;13447;57.174;-2.112;2022-08-19T01:17:15;12.80;99.90
25556;DHT22;13447;57.174;-2.112;2022-08-19T01:19:43;12.60;99.90
25556;DHT22;13447;57.174;-2.112;2022-08-19T01:24:57;12.40;99.90
25556;DHT22;13447;57.174;-2.112;2022-08-19T01:27:25;12.40;99.90
25556;DHT22;13447;57.174;-2.112;2022-08-19T01:29:55;12.40;99.90
25556;DHT22;13447;57.174;-2.112;2022-08-19T01:32:23;12.60;99.90
25556;DHT22;13447;57.174;-2.112;2022-08-19T01:35:00;12.60;99.90
25556;DHT22;13447;57.174;-2.112;2022-08-19T01:37:29;12.60;99.90
25556;DHT22;13447;57.174;-2.112;2022-08-19T01:39:57;12.60;99.90
25556;DHT22;13447;57.174;-2.112;2022-08-19T01:42:24;12.60;99.90
25556;DHT22;13447;57.174;-2.112;2022-08-19T01:44:56;12.50;99.90
25556;DHT22;13447;57.174;-2.112;2022-08-19T01:47:23;12.50;99.90
25556;DHT22;13447;57.174;-2.112;2022-08-19T01:49:50;12.40;99.90
25556;DHT22;13447;57.174;-2.112;2022-08-19T01:52:17;12.40;99.90
25556;DHT22;13447;57.174;-2.112;2022-08-19T01:54:44;12.30;99.90
25556;DHT22;13447;57.174;-2.112;2022-08-19T01:57:12;12.30;99.90
25556;DHT22;13447;57.174;-2.112;2022-08-19T01:59:41;12.30;99.90
25556;DHT22;13447;57.174;-2.112;2022-08-19T02:02:09;12.40;99.90
25556;DHT22;13447;57.174;-2.112;2022-08-19T02:04:36;12.40;99.90
25556;DHT22;13447;57.174;-2.112;2022-08-19T02:07:06;12.50;99.90
25556;DHT22;13447;57.174;-2.112;2022-08-19T02:09:34;12.50;99.90
25556;DHT22;13447;57.174;-2.112;2022-08-19T02:12:02;12.50;99.90
25556;DHT22;13447;57.174;-2.112;2022-08-19T02:14:29;12.40;99.90
25556;DHT22;13447;57.174;-2.112;2022-08-19T02:16:56;12.40;99.90
25556;DHT22;13447;57.174;-2.112;2022-08-19T02:19:23;12.40;99.90
25556;DHT22;13447;57.174;-2.112;2022-08-19T02:21:50;12.30;99.90
25556;DHT22;13447;57.174;-2.112;2022-08-19T02:24:16;12.30;99.90
25556;DHT22;13447;57.174;-2.112;2022-08-19T02:26:43;12.30;99.90
25556;DHT22;13447;57.174;-2.112;2022-08-19T02:29:10;12.30;99.90
25556;DHT22;13447;57.174;-2.112;2022-08-19T02:31:37;12.30;99.90
25556;DHT22;13447;57.174;-2.112;2022-08-19T02:34:04;12.20;99.90
25556;DHT22;13447;57.174;-2.112;2022-08-19T02:36:31;12.20;99.90
25556;DHT22;13447;57.174;-2.112;2022-08-19T02:38:58;12.20;99.90
25556;DHT22;13447;57.174;-2.112;2022-08-19T02:41:29;12.20;99.90
25556;DHT22;13447;57.174;-2.112;2022-08-19T02:43:59;12.10;99.90
25556;DHT22;13447;57.174;-2.112;2022-08-19T02:46:48;12.10;99.90
25556;DHT22;13447;57.174;-2.112;2022-08-19T02:49:18;12.20;99.90
25556;DHT22;13447;57.174;-2.112;2022-08-19T02:51:45;12.20;99.90
25556;DHT22;13447;57.174;-2.112;2022-08-19T02:54:14;12.20;99.90
25556;DHT22;13447;57.174;-2.112;2022-08-19T02:56:42;12.20;99.90
25556;DHT22;13447;57.174;-2.112;2022-08-19T02:59:09;12.20;99.90
25556;DHT22;13447;57.174;-2.112;2022-08-19T03:01:40;12.20;99.90
25556;DHT22;13447;57.174;-2.112;2022-08-19T03:04:10;12.10;99.90
25556;DHT22;13447;57.174;-2.112;2022-08-19T03:06:39;12.10;99.90
25556;DHT22;13447;57.174;-2.112;2022-08-19T03:09:07;12.00;99.90
25556;DHT22;13447;57.174;-2.112;2022-08-19T03:11:35;12.00;99.90
25556;DHT22;13447;57.174;-2.112;2022-08-19T03:14:04;12.00;99.90
25556;DHT22;13447;57.174;-2.112;2022-08-19T03:16:34;12.00;99.90
25556;DHT22;13447;57.174;-2.112;2022-08-19T03:19:02;12.00;99.90
25556;DHT22;13447;57.174;-2.112;2022-08-19T03:21:31;12.00;99.90
25556;DHT22;13447;57.174;-2.112;2022-08-19T03:24:02;11.90;99.90
25556;DHT22;13447;57.174;-2.112;2022-08-19T03:26:29;11.90;99.90
25556;DHT22;13447;57.174;-2.112;2022-08-19T03:28:57;11.80;99.90
25556;DHT22;13447;57.174;-2.112;2022-08-19T03:31:26;11.70;99.90
25556;DHT22;13447;57.174;-2.112;2022-08-19T03:34:17;11.60;99.90
25556;DHT22;13447;57.174;-2.112;2022-08-19T03:36:45;11.50;99.90
25556;DHT22;13447;57.174;-2.112;2022-08-19T03:39:13;11.50;99.90
25556;DHT22;13447;57.174;-2.112;2022-08-19T03:41:42;11.40;99.90
25556;DHT22;13447;57.174;-2.112;2022-08-19T03:44:17;11.50;99.90
25556;DHT22;13447;57.174;-2.112;2022-08-19T03:46:49;11.50;99.90
25556;DHT22;13447;57.174;-2.112;2022-08-19T03:49:18;11.50;99.90
25556;DHT22;13447;57.174;-2.112;2022-08-19T03:51:47;11.40;99.90
25556;DHT22;13447;57.174;-2.112;2022-08-19T03:54:17;11.40;99.90
25556;DHT22;13447;57.174;-2.112;2022-08-19T03:56:46;11.40;99.90
25556;DHT22;13447;57.174;-2.112;2022-08-19T03:59:17;11.40;99.90
25556;DHT22;13447;57.174;-2.112;2022-08-19T04:01:44;11.40;99.90
25556;DHT22;13447;57.174;-2.112;2022-08-19T04:04:11;11.30;99.90
25556;DHT22;13447;57.174;-2.112;2022-08-19T04:06:39;11.20;99.90
25556;DHT22;13447;57.174;-2.112;2022-08-19T04:09:08;11.10;99.90
25556;DHT22;13447;57.174;-2.112;2022-08-19T04:11:49;11.10;99.90
25556;DHT22;13447;57.174;-2.112;2022-08-19T04:14:18;11.00;99.90
25556;DHT22;13447;57.174;-2.112;2022-08-19T04:16:47;10.90;99.90
25556;DHT22;13447;57.174;-2.112;2022-08-19T04:19:15;10.80;99.90
25556;DHT22;13447;57.174;-2.112;2022-08-19T04:21:45;10.80;99.90
25556;DHT22;13447;57.174;-2.112;2022-08-19T04:24:14;10.70;99.90
25556;DHT22;13447;57.174;-2.112;2022-08-19T04:26:41;10.70;99.90
25556;DHT22;13447;57.174;-2.112;2022-08-19T04:29:13;10.70;99.90
25556;DHT22;13447;57.174;-2.112;2022-08-19T04:31:41;10.80;99.90
25556;DHT22;13447;57.174;-2.112;2022-08-19T04:34:11;10.90;99.90
25556;DHT22;13447;57.174;-2.112;2022-08-19T04:36:41;11.00;99.90
25556;DHT22;13447;57.174;-2.112;2022-08-19T04:39:13;11.00;99.90
25556;DHT22;13447;57.174;-2.112;2022-08-19T04:41:40;11.00;99.90
25556;DHT22;13447;57.174;-2.112;2022-08-19T04:44:25;11.10;99.90
25556;DHT22;13447;57.174;-2.112;2022-08-19T04:46:53;11.20;99.90
25556;DHT22;13447;57.174;-2.112;2022-08-19T04:49:21;11.30;99.90
25556;DHT22;13447;57.174;-2.112;2022-08-19T04:51:50;11.30;99.90
25556;DHT22;13447;57.174;-2.112;2022-08-19T04:54:19;11.40;99.90
25556;DHT22;13447;57.174;-2.112;2022-08-19T04:57:06;11.40;99.90
25556;DHT22;13447;57.174;-2.112;2022-08-19T04:59:38;11.40;99.90
25556;DHT22;13447;57.174;-2.112;2022-08-19T05:02:06;11.50;99.90
25556;DHT22;13447;57.174;-2.112;2022-08-19T05:04:35;11.60;99.90
25556;DHT22;13447;57.174;-2.112;2022-08-19T05:07:07;11.60;99.90
25556;DHT22;13447;57.174;-2.112;2022-08-19T05:09:34;11.60;99.90
25556;DHT22;13447;57.174;-2.112;2022-08-19T05:12:21;11.60;99.90
25556;DHT22;13447;57.174;-2.112;2022-08-19T05:14:55;11.70;99.90
25556;DHT22;13447;57.174;-2.112;2022-08-19T05:17:24;11.70;99.90
25556;DHT22;13447;57.174;-2.112;2022-08-19T05:19:55;11.70;99.90
25556;DHT22;13447;57.174;-2.112;2022-08-19T05:22:42;11.80;99.90
25556;DHT22;13447;57.174;-2.112;2022-08-19T05:25:12;11.80;99.90
25556;DHT22;13447;57.174;-2.112;2022-08-19T05:27:41;11.90;99.90
25556;DHT22;13447;57.174;-2.112;2022-08-19T05:30:10;11.90;99.90
25556;DHT22;13447;57.174;-2.112;2022-08-19T05:32:38;12.00;99.90
25556;DHT22;13447;57.174;-2.112;2022-08-19T05:35:05;12.10;99.90
25556;DHT22;13447;57.174;-2.112;2022-08-19T05:37:32;12.10;99.90
25556;DHT22;13447;57.174;-2.112;2022-08-19T05:39:59;12.20;99.90
25556;DHT22;13447;57.174;-2.112;2022-08-19T05:42:26;12.30;99.90
25556;DHT22;13447;57.174;-2.112;2022-08-19T05:44:53;12.30;99.90
25556;DHT22;13447;57.174;-2.112;2022-08-19T05:47:20;12.40;99.90
25556;DHT22;13447;57.174;-2.112;2022-08-19T05:49:48;12.50;99.90
25556;DHT22;13447;57.174;-2.112;2022-08-19T05:54:51;12.70;99.90
25556;DHT22;13447;57.174;-2.112;2022-08-19T05:57:22;12.80;99.90
25556;DHT22;13447;57.174;-2.112;2022-08-19T05:59:49;12.70;99.90
25556;DHT22;13447;57.174;-2.112;2022-08-19T06:02:23;12.70;99.90
25556;DHT22;13447;57.174;-2.112;2022-08-19T06:04:51;12.90;99.90
25556;DHT22;13447;57.174;-2.112;2022-08-19T06:07:18;12.90;99.90
25556;DHT22;13447;57.174;-2.112;2022-08-19T06:09:46;13.00;99.90
25556;DHT22;13447;57.174;-2.112;2022-08-19T06:12:28;13.10;99.90
25556;DHT22;13447;57.174;-2.112;2022-08-19T06:14:59;13.20;99.90
25556;DHT22;13447;57.174;-2.112;2022-08-19T06:17:28;13.20;99.90
25556;DHT22;13447;57.174;-2.112;2022-08-19T06:19:58;13.30;99.90
25556;DHT22;13447;57.174;-2.112;2022-08-19T06:22:26;13.40;99.90
25556;DHT22;13447;57.174;-2.112;2022-08-19T06:24:59;13.40;99.90
25556;DHT22;13447;57.174;-2.112;2022-08-19T06:27:26;13.40;99.90
25556;DHT22;13447;57.174;-2.112;2022-08-19T06:29:53;13.50;99.90
25556;DHT22;13447;57.174;-2.112;2022-08-19T06:32:20;13.50;99.90
25556;DHT22;13447;57.174;-2.112;2022-08-19T06:34:47;13.50;99.90
25556;DHT22;13447;57.174;-2.112;2022-08-19T06:37:15;13.60;99.90
25556;DHT22;13447;57.174;-2.112;2022-08-19T06:39:43;13.70;99.90
25556;DHT22;13447;57.174;-2.112;2022-08-19T06:42:11;13.70;99.90
25556;DHT22;13447;57.174;-2.112;2022-08-19T06:44:41;13.70;99.90
25556;DHT22;13447;57.174;-2.112;2022-08-19T06:47:17;13.90;99.90
25556;DHT22;13447;57.174;-2.112;2022-08-19T06:49:57;13.90;99.90
25556;DHT22;13447;57.174;-2.112;2022-08-19T06:52:33;14.00;99.90
25556;DHT22;13447;57.174;-2.112;2022-08-19T06:55:03;14.10;99.90
25556;DHT22;13447;57.174;-2.112;2022-08-19T06:57:33;14.10;99.90
25556;DHT22;13447;57.174;-2.112;2022-08-19T07:00:00;14.10;99.90
25556;DHT22;13447;57.174;-2.112;2022-08-19T07:02:27;14.20;99.90
25556;DHT22;13447;57.174;-2.112;2022-08-19T07:04:54;14.30;99.90
25556;DHT22;13447;57.174;-2.112;2022-08-19T07:09:52;14.50;99.90
25556;DHT22;13447;57.174;-2.112;2022-08-19T07:12:31;14.50;99.90
25556;DHT22;13447;57.174;-2.112;2022-08-19T07:15:05;14.60;99.90
25556;DHT22;13447;57.174;-2.112;2022-08-19T07:17:32;14.80;99.90
25556;DHT22;13447;57.174;-2.112;2022-08-19T07:20:02;14.90;99.90
25556;DHT22;13447;57.174;-2.112;2022-08-19T07:22:38;15.00;99.90
25556;DHT22;13447;57.174;-2.112;2022-08-19T07:25:07;15.10;99.90
25556;DHT22;13447;57.174;-2.112;2022-08-19T07:27:35;15.20;99.90
25556;DHT22;13447;57.174;-2.112;2022-08-19T07:30:02;15.30;99.90
25556;DHT22;13447;57.174;-2.112;2022-08-19T07:32:30;15.30;99.90
25556;DHT22;13447;57.174;-2.112;2022-08-19T07:34:58;15.40;99.90
25556;DHT22;13447;57.174;-2.112;2022-08-19T07:37:27;15.50;99.90
25556;DHT22;13447;57.174;-2.112;2022-08-19T07:40:00;15.50;99.90
25556;DHT22;13447;57.174;-2.112;2022-08-19T07:42:27;15.60;99.90
25556;DHT22;13447;57.174;-2.112;2022-08-19T07:44:57;15.60;99.90
25556;DHT22;13447;57.174;-2.112;2022-08-19T07:47:25;15.70;99.90
25556;DHT22;13447;57.174;-2.112;2022-08-19T07:50:12;15.80;99.90
25556;DHT22;13447;57.174;-2.112;2022-08-19T07:52:39;15.80;99.90
25556;DHT22;13447;57.174;-2.112;2022-08-19T07:55:09;15.90;99.90
25556;DHT22;13447;57.174;-2.112;2022-08-19T07:57:56;15.90;99.90
25556;DHT22;13447;57.174;-2.112;2022-08-19T08:00:24;16.00;99.90
25556;DHT22;13447;57.174;-2.112;2022-08-19T08:02:52;16.10;99.90
25556;DHT22;13447;57.174;-2.112;2022-08-19T08:05:22;16.10;99.90
25556;DHT22;13447;57.174;-2.112;2022-08-19T08:08:10;16.10;99.90
25556;DHT22;13447;57.174;-2.112;2022-08-19T08:10:56;16.20;99.90
25556;DHT22;13447;57.174;-2.112;2022-08-19T08:13:24;16.30;99.90
25556;DHT22;13447;57.174;-2.112;2022-08-19T08:15:52;16.40;99.90
25556;DHT22;13447;57.174;-2.112;2022-08-19T08:18:25;16.40;99.90
25556;DHT22;13447;57.174;-2.112;2022-08-19T08:20:56;16.50;99.90
25556;DHT22;13447;57.174;-2.112;2022-08-19T08:23:24;16.60;99.90
25556;DHT22;13447;57.174;-2.112;2022-08-19T08:25:57;16.60;99.90
25556;DHT22;13447;57.174;-2.112;2022-08-19T08:28:26;16.70;99.90
25556;DHT22;13447;57.174;-2.112;2022-08-19T08:30:56;16.80;99.90
25556;DHT22;13447;57.174;-2.112;2022-08-19T08:33:25;16.80;99.90
25556;DHT22;13447;57.174;-2.112;2022-08-19T08:36:08;16.90;99.90
25556;DHT22;13447;57.174;-2.112;2022-08-19T08:38:36;17.00;99.90
25556;DHT22;13447;57.174;-2.112;2022-08-19T08:46:55;17.80;99.90
25556;DHT22;13447;57.174;-2.112;2022-08-19T08:49:56;18.00;98.10
25556;DHT22;13447;57.174;-2.112;2022-08-19T08:52:32;18.50;96.90
25556;DHT22;13447;57.174;-2.112;2022-08-19T08:55:13;18.90;94.00
25556;DHT22;13447;57.174;-2.112;2022-08-19T09:00:30;19.50;91.30
25556;DHT22;13447;57.174;-2.112;2022-08-19T09:02:58;19.70;90.80
25556;DHT22;13447;57.174;-2.112;2022-08-19T09:11:06;20.30;88.10
25556;DHT22;13447;57.174;-2.112;2022-08-19T09:13:49;20.00;83.30
25556;DHT22;13447;57.174;-2.112;2022-08-19T09:16:21;20.50;82.90
25556;DHT22;13447;57.174;-2.112;2022-08-19T09:19:06;21.10;80.80
25556;DHT22;13447;57.174;-2.112;2022-08-19T09:21:34;21.20;77.00
25556;DHT22;13447;57.174;-2.112;2022-08-19T09:24:06;21.50;75.80
25556;DHT22;13447;57.174;-2.112;2022-08-19T09:26:39;21.40;74.90
25556;DHT22;13447;57.174;-2.112;2022-08-19T09:29:18;21.50;75.90
25556;DHT22;13447;57.174;-2.112;2022-08-19T09:31:48;21.70;74.90
25556;DHT22;13447;57.174;-2.112;2022-08-19T09:34:16;21.90;74.00
25556;DHT22;13447;57.174;-2.112;2022-08-19T09:36:48;22.00;73.20
25556;DHT22;13447;57.174;-2.112;2022-08-19T09:39:20;22.20;76.60
25556;DHT22;13447;57.174;-2.112;2022-08-19T09:41:47;22.50;75.60
25556;DHT22;13447;57.174;-2.112;2022-08-19T09:44:17;22.60;69.10
25556;DHT22;13447;57.174;-2.112;2022-08-19T09:46:44;22.90;69.80
25556;DHT22;13447;57.174;-2.112;2022-08-19T09:49:15;22.90;66.50
25556;DHT22;13447;57.174;-2.112;2022-08-19T09:51:44;22.90;67.90
25556;DHT22;13447;57.174;-2.112;2022-08-19T09:54:17;22.90;66.40
25556;DHT22;13447;57.174;-2.112;2022-08-19T09:56:51;22.60;66.10
25556;DHT22;13447;57.174;-2.112;2022-08-19T09:59:18;23.00;69.20
25556;DHT22;13447;57.174;-2.112;2022-08-19T10:01:45;23.10;66.90
25556;DHT22;13447;57.174;-2.112;2022-08-19T10:04:13;23.10;64.40
25556;DHT22;13447;57.174;-2.112;2022-08-19T10:06:49;22.70;65.60
25556;DHT22;13447;57.174;-2.112;2022-08-19T10:09:19;22.80;64.80
25556;DHT22;13447;57.174;-2.112;2022-08-19T10:11:59;23.50;63.60
25556;DHT22;13447;57.174;-2.112;2022-08-19T10:14:28;24.20;69.70
25556;DHT22;13447;57.174;-2.112;2022-08-19T10:16:55;23.50;59.70
25556;DHT22;13447;57.174;-2.112;2022-08-19T10:19:25;23.70;58.80
25556;DHT22;13447;57.174;-2.112;2022-08-19T10:21:53;23.70;62.40
25556;DHT22;13447;57.174;-2.112;2022-08-19T10:24:21;23.80;59.10
25556;DHT22;13447;57.174;-2.112;2022-08-19T10:26:51;23.70;62.30
25556;DHT22;13447;57.174;-2.112;2022-08-19T10:29:25;23.30;63.90
25556;DHT22;13447;57.174;-2.112;2022-08-19T10:32:03;23.70;67.40
25556;DHT22;13447;57.174;-2.112;2022-08-19T10:34:38;23.70;58.60
25556;DHT22;13447;57.174;-2.112;2022-08-19T10:37:16;23.70;58.50
25556;DHT22;13447;57.174;-2.112;2022-08-19T10:39:57;23.80;57.90
25556;DHT22;13447;57.174;-2.112;2022-08-19T10:42:24;23.90;58.50
25556;DHT22;13447;57.174;-2.112;2022-08-19T10:44:51;24.00;56.90
25556;DHT22;13447;57.174;-2.112;2022-08-19T10:47:18;23.90;57.50
25556;DHT22;13447;57.174;-2.112;2022-08-19T10:49:52;24.00;59.90
25556;DHT22;13447;57.174;-2.112;2022-08-19T10:52:40;24.00;55.50
25556;DHT22;13447;57.174;-2.112;2022-08-19T10:55:18;23.90;57.20
25556;DHT22;13447;57.174;-2.112;2022-08-19T10:58:09;24.40;59.20
25556;DHT22;13447;57.174;-2.112;2022-08-19T11:00:36;24.70;54.90
25556;DHT22;13447;57.174;-2.112;2022-08-19T11:03:04;24.80;59.00
25556;DHT22;13447;57.174;-2.112;2022-08-19T11:05:30;24.60;54.00
25556;DHT22;13447;57.174;-2.112;2022-08-19T11:08:05;24.60;53.50
25556;DHT22;13447;57.174;-2.112;2022-08-19T11:10:50;24.90;54.30
25556;DHT22;13447;57.174;-2.112;2022-08-19T11:13:17;25.20;55.30
25556;DHT22;13447;57.174;-2.112;2022-08-19T11:15:44;25.30;59.00
25556;DHT22;13447;57.174;-2.112;2022-08-19T11:18:12;25.30;55.10
25556;DHT22;13447;57.174;-2.112;2022-08-19T11:20:39;25.70;51.40
25556;DHT22;13447;57.174;-2.112;2022-08-19T11:23:06;25.80;51.80
25556;DHT22;13447;57.174;-2.112;2022-08-19T11:25:33;26.20;56.30
25556;DHT22;13447;57.174;-2.112;2022-08-19T11:28:01;26.20;54.60
25556;DHT22;13447;57.174;-2.112;2022-08-19T11:40:18;24.80;99.90
25556;DHT22;13447;57.174;-2.112;2022-08-19T11:42:45;24.70;51.80
25556;DHT22;13447;57.174;-2.112;2022-08-19T11:45:26;24.40;54.00
25556;DHT22;13447;57.174;-2.112;2022-08-19T11:47:55;24.70;52.20
25556;DHT22;13447;57.174;-2.112;2022-08-19T11:52:53;23.70;53.10
25556;DHT22;13447;57.174;-2.112;2022-08-19T11:55:20;23.50;54.50
25556;DHT22;13447;57.174;-2.112;2022-08-19T11:57:47;23.70;52.20
25556;DHT22;13447;57.174;-2.112;2022-08-19T12:00:14;23.60;54.70
25556;DHT22;13447;57.174;-2.112;2022-08-19T12:02:41;24.30;94.70
25556;DHT22;13447;57.174;-2.112;2022-08-19T12:05:09;25.00;81.20
25556;DHT22;13447;57.174;-2.112;2022-08-19T12:07:39;25.60;49.50
25556;DHT22;13447;57.174;-2.112;2022-08-19T12:12:36;25.60;43.80
25556;DHT22;13447;57.174;-2.112;2022-08-19T12:15:07;25.90;47.90
25556;DHT22;13447;57.174;-2.112;2022-08-19T12:17:34;26.10;43.90
25556;DHT22;13447;57.174;-2.112;2022-08-19T12:20:02;25.20;45.50
25556;DHT22;13447;57.174;-2.112;2022-08-19T12:22:29;25.10;45.80
25556;DHT22;13447;57.174;-2.112;2022-08-19T12:24:56;25.40;47.80
25556;DHT22;13447;57.174;-2.112;2022-08-19T12:27:23;25.30;46.80
25556;DHT22;13447;57.174;-2.112;2022-08-19T12:30:10;24.50;83.00
25556;DHT22;13447;57.174;-2.112;2022-08-19T12:32:38;23.20;50.50
25556;DHT22;13447;57.174;-2.112;2022-08-19T12:35:06;23.10;78.20
25556;DHT22;13447;57.174;-2.112;2022-08-19T12:47:24;22.80;52.70
25556;DHT22;13447;57.174;-2.112;2022-08-19T12:49:52;22.80;75.60
25556;DHT22;13447;57.174;-2.112;2022-08-19T12:54:55;22.90;52.60
25556;DHT22;13447;57.174;-2.112;2022-08-19T12:57:25;23.10;53.00
25556;DHT22;13447;57.174;-2.112;2022-08-19T13:00:04;24.00;72.50
25556;DHT22;13447;57.174;-2.112;2022-08-19T13:02:34;24.80;73.10
25556;DHT22;13447;57.174;-2.112;2022-08-19T13:05:05;24.70;47.30
25556;DHT22;13447;57.174;-2.112;2022-08-19T13:07:35;24.10;46.80
25556;DHT22;13447;57.174;-2.112;2022-08-19T13:10:03;24.40;47.80
25556;DHT22;13447;57.174;-2.112;2022-08-19T13:12:30;25.00;52.30
25556;DHT22;13447;57.174;-2.112;2022-08-19T13:14:57;25.40;44.30
25556;DHT22;13447;57.174;-2.112;2022-08-19T13:17:24;25.10;44.80
25556;DHT22;13447;57.174;-2.112;2022-08-19T13:22:18;24.50;53.50
25556;DHT22;13447;57.174;-2.112;2022-08-19T13:24:45;24.00;46.80
25556;DHT22;13447;57.174;-2.112;2022-08-19T13:27:13;23.70;47.60
25556;DHT22;13447;57.174;-2.112;2022-08-19T13:29:41;23.80;49.50
25556;DHT22;13447;57.174;-2.112;2022-08-19T13:32:28;23.60;48.70
25556;DHT22;13447;57.174;-2.112;2022-08-19T13:35:15;23.70;48.30
25556;DHT22;13447;57.174;-2.112;2022-08-19T13:45:16;22.80;92.60
25556;DHT22;13447;57.174;-2.112;2022-08-19T13:47:49;22.80;69.40
25556;DHT22;13447;57.174;-2.112;2022-08-19T13:52:55;22.30;52.60
25556;DHT22;13447;57.174;-2.112;2022-08-19T13:55:23;22.40;53.70
25556;DHT22;13447;57.174;-2.112;2022-08-19T13:57:52;22.30;52.40
25556;DHT22;13447;57.174;-2.112;2022-08-19T14:00:21;22.20;53.50
25556;DHT22;13447;57.174;-2.112;2022-08-19T14:02:51;21.80;54.70
25556;DHT22;13447;57.174;-2.112;2022-08-19T14:05:20;21.80;53.80
25556;DHT22;13447;57.174;-2.112;2022-08-19T14:07:47;22.00;54.50
25556;DHT22;13447;57.174;-2.112;2022-08-19T14:10:15;22.10;54.30
25556;DHT22;13447;57.174;-2.112;2022-08-19T14:12:43;22.20;54.00
25556;DHT22;13447;57.174;-2.112;2022-08-19T14:15:11;22.10;53.20
25556;DHT22;13447;57.174;-2.112;2022-08-19T14:17:39;22.20;54.20
25556;DHT22;13447;57.174;-2.112;2022-08-19T14:20:09;22.30;54.10
25556;DHT22;13447;57.174;-2.112;2022-08-19T14:22:45;22.40;53.40
25556;DHT22;13447;57.174;-2.112;2022-08-19T14:25:16;22.20;53.80
25556;DHT22;13447;57.174;-2.112;2022-08-19T14:27:43;22.00;55.30
25556;DHT22;13447;57.174;-2.112;2022-08-19T14:30:14;22.10;55.00
25556;DHT22;13447;57.174;-2.112;2022-08-19T14:32:42;22.10;54.70
25556;DHT22;13447;57.174;-2.112;2022-08-19T14:35:11;21.70;55.70
25556;DHT22;13447;57.174;-2.112;2022-08-19T14:37:39;21.60;56.60
25556;DHT22;13447;57.174;-2.112;2022-08-19T14:40:24;21.70;56.10
25556;DHT22;13447;57.174;-2.112;2022-08-19T14:42:53;21.60;56.30
25556;DHT22;13447;57.174;-2.112;2022-08-19T14:45:27;21.20;57.00
25556;DHT22;13447;57.174;-2.112;2022-08-19T14:47:54;21.20;57.20
25556;DHT22;13447;57.174;-2.112;2022-08-19T14:50:22;21.20;56.20
25556;DHT22;13447;57.174;-2.112;2022-08-19T14:52:49;21.10;57.50
25556;DHT22;13447;57.174;-2.112;2022-08-19T14:55:18;21.20;56.50
25556;DHT22;13447;57.174;-2.112;2022-08-19T14:57:45;21.30;55.80
25556;DHT22;13447;57.174;-2.112;2022-08-19T15:00:13;21.40;56.10
25556;DHT22;13447;57.174;-2.112;2022-08-19T15:02:43;21.20;55.70
25556;DHT22;13447;57.174;-2.112;2022-08-19T15:05:13;21.20;55.30
25556;DHT22;13447;57.174;-2.112;2022-08-19T15:07:40;21.10;55.20
25556;DHT22;13447;57.174;-2.112;2022-08-19T15:10:09;20.70;54.90
25556;DHT22;13447;57.174;-2.112;2022-08-19T15:12:37;20.60;56.40
25556;DHT22;13447;57.174;-2.112;2022-08-19T15:15:08;20.50;60.40
25556;DHT22;13447;57.174;-2.112;2022-08-19T15:17:35;20.40;64.90
25556;DHT22;13447;57.174;-2.112;2022-08-19T15:20:20;20.40;68.00
25556;DHT22;13447;57.174;-2.112;2022-08-19T15:22:50;20.40;63.00
25556;DHT22;13447;57.174;-2.112;2022-08-19T15:25:18;20.60;60.50
25556;DHT22;13447;57.174;-2.112;2022-08-19T15:27:45;20.60;60.60
25556;DHT22;13447;57.174;-2.112;2022-08-19T15:30:20;20.80;58.50
25556;DHT22;13447;57.174;-2.112;2022-08-19T15:32:48;20.70;59.10
25556;DHT22;13447;57.174;-2.112;2022-08-19T15:35:15;20.80;58.60
25556;DHT22;13447;57.174;-2.112;2022-08-19T15:37:48;20.80;57.50
25556;DHT22;13447;57.174;-2.112;2022-08-19T15:40:15;20.80;57.20
25556;DHT22;13447;57.174;-2.112;2022-08-19T15:42:43;20.80;56.80
25556;DHT22;13447;57.174;-2.112;2022-08-19T15:45:12;20.80;57.80
25556;DHT22;13447;57.174;-2.112;2022-08-19T15:47:40;20.90;57.30
25556;DHT22;13447;57.174;-2.112;2022-08-19T15:50:10;21.00;58.90
25556;DHT22;13447;57.174;-2.112;2022-08-19T15:52:45;20.90;57.60
25556;DHT22;13447;57.174;-2.112;2022-08-19T15:55:17;21.00;58.50
25556;DHT22;13447;57.174;-2.112;2022-08-19T15:58:04;21.00;57.90
25556;DHT22;13447;57.174;-2.112;2022-08-19T16:00:59;20.80;57.80
25556;DHT22;13447;57.174;-2.112;2022-08-19T16:03:47;20.80;58.50
25556;DHT22;13447;57.174;-2.112;2022-08-19T16:06:46;20.80;59.10
25556;DHT22;13447;57.174;-2.112;2022-08-19T16:09:14;20.80;57.60
25556;DHT22;13447;57.174;-2.112;2022-08-19T16:11:42;20.70;58.40
25556;DHT22;13447;57.174;-2.112;2022-08-19T16:14:13;20.60;58.10
25556;DHT22;13447;57.174;-2.112;2022-08-19T16:16:42;20.60;59.30
25556;DHT22;13447;57.174;-2.112;2022-08-19T16:19:15;20.60;58.90
25556;DHT22;13447;57.174;-2.112;2022-08-19T16:21:47;20.70;58.50
25556;DHT22;13447;57.174;-2.112;2022-08-19T16:24:16;20.70;59.30
25556;DHT22;13447;57.174;-2.112;2022-08-19T16:26:45;20.60;59.10
25556;DHT22;13447;57.174;-2.112;2022-08-19T16:29:13;20.50;59.20
25556;DHT22;13447;57.174;-2.112;2022-08-19T16:32:04;20.50;59.70
25556;DHT22;13447;57.174;-2.112;2022-08-19T16:34:31;20.50;59.70
25556;DHT22;13447;57.174;-2.112;2022-08-19T16:37:00;20.50;74.60
25556;DHT22;13447;57.174;-2.112;2022-08-19T16:39:27;20.30;60.70
25556;DHT22;13447;57.174;-2.112;2022-08-19T16:41:54;20.20;59.40
25556;DHT22;13447;57.174;-2.112;2022-08-19T16:44:21;20.20;58.70